createdAt,value
2018-12-13T00:01:24.214Z,12.73
2018-12-13T00:03:51.810Z,12.58
2018-12-13T00:06:19.437Z,12.70
2018-12-13T00:08:46.995Z,13.00
2018-12-13T00:11:14.595Z,12.93
2018-12-13T00:13:42.246Z,12.20
2018-12-13T00:16:09.814Z,13.48
2018-12-13T00:18:37.413Z,13.40
2018-12-13T00:21:05.010Z,12.58
2018-12-13T00:23:34.018Z,13.35
2018-12-13T00:26:01.590Z,13.15
2018-12-13T00:28:29.181Z,13.77
2018-12-13T00:30:56.766Z,13.58
2018-12-13T00:33:24.350Z,14.07
2018-12-13T00:35:51.906Z,14.45
2018-12-13T00:38:19.503Z,14.05
2018-12-13T00:40:47.070Z,13.75
2018-12-13T00:43:14.662Z,15.23
2018-12-13T00:45:42.234Z,14.47
2018-12-13T00:48:09.891Z,14.55
2018-12-13T00:50:37.527Z,14.63
2018-12-13T00:53:05.246Z,15.60
2018-12-13T00:55:32.811Z,15.20
2018-12-13T00:58:00.383Z,16.00
2018-12-13T01:00:27.971Z,15.30
2018-12-13T01:02:55.570Z,15.55
2018-12-13T01:05:23.134Z,15.60
2018-12-13T01:07:50.733Z,15.88
2018-12-13T01:10:18.295Z,14.83
2018-12-13T01:12:45.883Z,15.50
2018-12-13T01:15:13.568Z,16.45
2018-12-13T01:17:41.163Z,16.93
2018-12-13T01:20:08.747Z,16.20
2018-12-13T01:22:36.319Z,16.10
2018-12-13T01:25:04.047Z,16.97
2018-12-13T01:27:31.691Z,17.25
2018-12-13T01:29:59.291Z,16.85
2018-12-13T01:32:26.856Z,17.45
2018-12-13T01:34:54.450Z,18.57
2018-12-13T01:37:22.018Z,18.00
2018-12-13T01:39:49.615Z,15.98
2018-12-13T01:42:18.291Z,15.63
2018-12-13T01:44:45.891Z,13.50
2018-12-13T01:47:13.455Z,13.40
2018-12-13T01:49:41.046Z,12.60
2018-12-13T01:52:08.606Z,10.85
2018-12-13T01:54:36.200Z,9.53
2018-12-13T01:57:03.882Z,8.73
2018-12-13T01:59:31.462Z,8.03
2018-12-13T02:01:59.047Z,8.50
2018-12-13T02:04:26.611Z,7.87
2018-12-13T02:06:58.750Z,7.92
2018-12-13T02:09:23.802Z,6.87
2018-12-13T02:11:51.390Z,7.50
2018-12-13T02:14:19.063Z,7.37
2018-12-13T02:16:46.675Z,6.72
2018-12-13T02:19:14.230Z,7.28
2018-12-13T02:21:41.868Z,7.03
2018-12-13T02:24:09.427Z,7.37
2018-12-13T02:26:37.019Z,7.42
2018-12-13T02:29:04.590Z,8.08
2018-12-13T02:31:32.179Z,7.60
2018-12-13T02:33:59.740Z,8.00
2018-12-13T02:36:27.334Z,8.10
2018-12-13T02:38:54.899Z,7.83
2018-12-13T02:41:22.479Z,8.23
2018-12-13T02:43:50.074Z,8.28
2018-12-13T02:46:17.654Z,7.90
2018-12-13T02:48:45.267Z,7.85
2018-12-13T02:51:12.831Z,8.28
2018-12-13T02:53:40.414Z,8.18
2018-12-13T02:56:07.980Z,8.27
2018-12-13T02:58:35.775Z,8.88
2018-12-13T03:01:05.583Z,8.15
2018-12-13T03:03:33.186Z,9.13
2018-12-13T03:06:00.755Z,9.00
2018-12-13T03:08:28.342Z,8.15
2018-12-13T03:10:55.903Z,9.00
2018-12-13T03:13:23.492Z,10.78
2018-12-13T03:15:51.061Z,9.88
2018-12-13T03:18:18.649Z,9.23
2018-12-13T03:20:46.422Z,10.45
2018-12-13T03:23:15.382Z,10.58
2018-12-13T03:25:42.959Z,11.00
2018-12-13T03:28:10.550Z,12.10
2018-12-13T03:30:38.776Z,12.00
2018-12-13T03:33:06.385Z,12.30
2018-12-13T03:35:33.962Z,11.83
2018-12-13T03:38:01.558Z,12.70
2018-12-13T03:40:29.286Z,13.05
2018-12-13T03:42:56.863Z,12.95
2018-12-13T03:45:24.455Z,14.03
2018-12-13T03:47:52.024Z,12.88
2018-12-13T03:50:19.622Z,13.22
2018-12-13T03:52:47.194Z,13.18
2018-12-13T03:55:14.783Z,14.78
2018-12-13T03:57:42.351Z,12.88
2018-12-13T04:00:09.996Z,13.53
2018-12-13T04:02:37.593Z,14.18
2018-12-13T04:05:05.608Z,14.30
2018-12-13T04:07:33.266Z,14.60
2018-12-13T04:10:00.868Z,15.70
2018-12-13T04:12:28.460Z,14.07
2018-12-13T04:14:56.166Z,15.10
2018-12-13T04:17:23.763Z,15.10
2018-12-13T04:19:51.331Z,14.83
2018-12-13T04:22:18.937Z,16.27
2018-12-13T04:24:46.511Z,16.10
2018-12-13T04:27:14.103Z,16.07
2018-12-13T04:29:41.698Z,16.30
2018-12-13T04:32:09.288Z,15.87
2018-12-13T04:34:36.869Z,16.52
2018-12-13T04:37:04.691Z,16.23
2018-12-13T04:39:32.279Z,17.00
2018-12-13T04:41:59.883Z,16.50
2018-12-13T04:44:27.451Z,16.77
2018-12-13T04:46:55.042Z,17.37
2018-12-13T04:49:22.623Z,17.43
2018-12-13T04:51:50.228Z,18.12
2018-12-13T04:54:17.807Z,18.02
2018-12-13T04:56:45.458Z,16.50
2018-12-13T04:59:13.059Z,17.73
2018-12-13T05:01:40.632Z,17.45
2018-12-13T05:04:08.218Z,17.37
2018-12-13T05:06:35.787Z,16.30
2018-12-13T05:09:06.515Z,16.70
2018-12-13T05:11:34.086Z,16.95
2018-12-13T05:14:01.751Z,17.32
2018-12-13T05:16:29.316Z,17.30
2018-12-13T05:18:56.920Z,16.20
2018-12-13T05:21:24.490Z,15.48
2018-12-13T05:23:52.091Z,16.25
2018-12-13T05:26:19.647Z,16.15
2018-12-13T05:28:47.253Z,17.05
2018-12-13T05:31:14.823Z,17.98
2018-12-13T05:33:42.411Z,17.15
2018-12-13T05:36:10.019Z,17.77
2018-12-13T05:38:37.704Z,18.95
2018-12-13T05:41:05.300Z,20.12
2018-12-13T05:43:32.867Z,18.90
2018-12-13T05:46:00.464Z,19.92
2018-12-13T05:48:28.028Z,20.68
2018-12-13T05:50:55.620Z,21.00
2018-12-13T05:53:23.358Z,22.22
2018-12-13T05:55:50.955Z,22.53
2018-12-13T05:58:18.526Z,22.52
2018-12-13T06:00:46.115Z,22.55
2018-12-13T06:03:13.693Z,22.87
2018-12-13T06:05:41.307Z,23.10
2018-12-13T06:08:08.874Z,22.40
2018-12-13T06:10:36.470Z,23.70
2018-12-13T06:13:04.210Z,24.55
2018-12-13T06:15:31.809Z,23.73
2018-12-13T06:17:59.419Z,25.90
2018-12-13T06:20:27.007Z,24.75
2018-12-13T06:22:54.565Z,24.83
2018-12-13T06:25:22.190Z,24.52
2018-12-13T06:27:49.783Z,24.27
2018-12-13T06:30:17.352Z,23.52
2018-12-13T06:32:44.951Z,24.95
2018-12-13T06:35:12.550Z,24.20
2018-12-13T06:37:40.115Z,25.77
2018-12-13T06:40:08.135Z,26.07
2018-12-13T06:42:36.652Z,25.35
2018-12-13T06:45:05.255Z,24.35
2018-12-13T06:47:32.867Z,25.80
2018-12-13T06:50:00.430Z,26.93
2018-12-13T06:52:28.420Z,26.97
2018-12-13T06:54:55.995Z,26.20
2018-12-13T06:57:23.579Z,25.77
2018-12-13T06:59:51.143Z,24.77
2018-12-13T07:02:18.756Z,26.15
2018-12-13T07:04:46.314Z,27.45
2018-12-13T07:07:13.914Z,27.85
2018-12-13T07:09:41.488Z,25.73
2018-12-13T07:12:09.090Z,26.95
2018-12-13T07:14:36.747Z,27.60
2018-12-13T07:17:04.459Z,25.85
2018-12-13T07:19:32.040Z,27.07
2018-12-13T07:21:59.631Z,27.13
2018-12-13T07:24:27.195Z,26.17
2018-12-13T07:26:54.758Z,25.17
2018-12-13T07:29:22.363Z,26.45
2018-12-13T07:31:49.930Z,26.68
2018-12-13T07:34:17.513Z,28.42
2018-12-13T07:36:45.078Z,24.67
2018-12-13T07:39:12.678Z,25.45
2018-12-13T07:41:40.239Z,25.75
2018-12-13T07:44:07.867Z,24.50
2018-12-13T07:46:35.431Z,24.60
2018-12-13T07:49:03.035Z,24.35
2018-12-13T07:51:30.607Z,23.73
2018-12-13T07:53:58.615Z,23.90
2018-12-13T07:56:26.190Z,21.70
2018-12-13T07:58:53.791Z,21.97
2018-12-13T08:01:21.357Z,21.48
2018-12-13T08:03:48.958Z,20.10
2018-12-13T08:06:16.539Z,19.67
2018-12-13T08:08:44.131Z,22.20
2018-12-13T08:11:11.718Z,20.80
2018-12-13T08:13:39.291Z,19.50
2018-12-13T08:16:06.897Z,19.95
2018-12-13T08:18:34.458Z,20.37
2018-12-13T08:21:02.055Z,21.82
2018-12-13T08:23:29.730Z,19.75
2018-12-13T08:25:57.328Z,19.95
2018-12-13T08:28:24.897Z,19.65
2018-12-13T08:30:52.494Z,18.60
2018-12-13T08:33:20.072Z,17.90
2018-12-13T08:35:47.663Z,18.92
2018-12-13T08:38:15.227Z,20.27
2018-12-13T08:40:42.819Z,18.40
2018-12-13T08:43:10.383Z,19.15
2018-12-13T08:45:37.974Z,20.25
2018-12-13T08:48:05.551Z,21.93
2018-12-13T08:50:33.143Z,20.15
2018-12-13T08:53:00.711Z,22.67
2018-12-13T08:55:28.307Z,20.68
2018-12-13T08:57:55.908Z,19.25
2018-12-13T09:00:23.525Z,19.57
2018-12-13T09:02:51.121Z,19.50
2018-12-13T09:05:18.745Z,20.17
2018-12-13T09:07:46.339Z,19.32
2018-12-13T09:10:13.903Z,19.23
2018-12-13T09:12:41.963Z,19.10
2018-12-13T09:15:09.645Z,18.90
2018-12-13T09:17:37.242Z,20.43
2018-12-13T09:20:06.257Z,20.70
2018-12-13T09:22:35.329Z,19.97
2018-12-13T09:25:02.915Z,20.68
2018-12-13T09:27:30.509Z,19.87
2018-12-13T09:29:58.091Z,18.92
2018-12-13T09:32:25.681Z,18.62
2018-12-13T09:34:54.170Z,19.55
2018-12-13T09:37:21.831Z,18.55
2018-12-13T09:39:49.429Z,19.45
2018-12-13T09:42:17.002Z,20.23
2018-12-13T09:44:44.591Z,19.20
2018-12-13T09:47:12.163Z,19.17
2018-12-13T09:49:39.752Z,19.15
2018-12-13T09:52:07.823Z,20.17
2018-12-13T09:54:35.415Z,18.35
2018-12-13T09:57:02.991Z,18.15
2018-12-13T09:59:30.589Z,19.92
2018-12-13T10:01:58.152Z,18.82
2018-12-13T10:04:25.742Z,20.80
2018-12-13T10:06:53.298Z,18.87
2018-12-13T10:09:20.898Z,18.73
2018-12-13T10:11:48.463Z,19.57
2018-12-13T10:14:16.062Z,19.35
2018-12-13T10:16:43.695Z,18.92
2018-12-13T10:19:11.287Z,19.20
2018-12-13T10:21:38.863Z,18.60
2018-12-13T10:24:07.596Z,19.10
2018-12-13T10:26:35.227Z,19.70
2018-12-13T10:29:02.803Z,43.80
2018-12-13T10:31:30.479Z,18.67
2018-12-13T10:33:58.035Z,16.52
2018-12-13T10:36:25.711Z,16.17
2018-12-13T10:38:53.503Z,15.93
2018-12-13T10:41:21.159Z,18.07
2018-12-13T10:43:48.719Z,15.93
2018-12-13T10:46:16.319Z,16.82
2018-12-13T10:48:43.884Z,16.62
2018-12-13T10:51:11.480Z,17.35
2018-12-13T10:53:39.057Z,18.32
2018-12-13T10:56:06.691Z,16.37
2018-12-13T10:58:34.258Z,16.80
2018-12-13T11:01:07.718Z,16.57
2018-12-13T11:03:35.295Z,16.07
2018-12-13T11:06:03.384Z,16.30
2018-12-13T11:08:30.975Z,16.10
2018-12-13T11:10:58.697Z,16.07
2018-12-13T11:13:26.298Z,15.65
2018-12-13T11:15:53.915Z,15.72
2018-12-13T11:18:21.507Z,14.07
2018-12-13T11:20:49.074Z,15.72
2018-12-13T11:23:16.671Z,15.05
2018-12-13T11:25:44.355Z,14.78
2018-12-13T11:28:23.931Z,14.85
2018-12-13T11:30:51.507Z,14.18
2018-12-13T11:33:19.111Z,14.70
2018-12-13T11:35:46.671Z,16.62
2018-12-13T11:38:14.258Z,13.80
2018-12-13T11:40:41.819Z,15.18
2018-12-13T11:43:09.423Z,14.77
2018-12-13T11:45:37.017Z,15.15
2018-12-13T11:48:04.723Z,14.98
2018-12-13T11:50:32.281Z,15.15
2018-12-13T11:52:59.871Z,16.67
2018-12-13T11:55:31.942Z,15.43
2018-12-13T11:57:59.806Z,15.70
2018-12-13T12:00:27.487Z,14.45
2018-12-13T12:02:55.051Z,13.72
2018-12-13T12:05:22.639Z,13.68
2018-12-13T12:07:50.209Z,14.43
2018-12-13T12:10:17.810Z,15.05
2018-12-13T12:12:45.374Z,13.15
2018-12-13T12:15:12.954Z,11.28
2018-12-13T12:17:40.523Z,11.17
2018-12-13T12:20:08.350Z,12.68
2018-12-13T12:22:35.913Z,12.75
2018-12-13T12:25:05.046Z,12.07
2018-12-13T12:27:32.619Z,12.68
2018-12-13T12:30:00.211Z,12.53
2018-12-13T12:32:27.975Z,13.20
2018-12-13T12:34:55.598Z,13.65
2018-12-13T12:37:23.199Z,14.38
2018-12-13T12:39:50.770Z,14.28
2018-12-13T12:42:18.363Z,15.20
2018-12-13T12:44:45.935Z,14.50
2018-12-13T12:47:13.523Z,13.78
2018-12-13T12:49:41.091Z,15.78
2018-12-13T12:52:08.805Z,14.05
2018-12-13T12:54:36.379Z,14.55
2018-12-13T12:57:04.000Z,15.65
2018-12-13T12:59:31.567Z,14.90
2018-12-13T13:01:59.507Z,15.70
2018-12-13T13:04:27.074Z,15.78
2018-12-13T13:06:54.665Z,15.03
2018-12-13T13:09:25.034Z,16.00
2018-12-13T13:11:51.871Z,14.13
2018-12-13T13:14:19.507Z,15.25
2018-12-13T13:16:47.109Z,17.02
2018-12-13T13:19:14.711Z,14.33
2018-12-13T13:21:42.287Z,16.15
2018-12-13T13:24:10.871Z,16.52
2018-12-13T13:26:38.498Z,17.48
2018-12-13T13:29:06.095Z,18.13
2018-12-13T13:31:33.671Z,20.10
2018-12-13T13:34:01.263Z,19.85
2018-12-13T13:36:28.835Z,20.40
2018-12-13T13:38:56.432Z,22.05
2018-12-13T13:41:23.999Z,19.67
2018-12-13T13:43:51.599Z,22.17
2018-12-13T13:46:19.172Z,20.90
2018-12-13T13:48:46.763Z,22.45
2018-12-13T13:51:14.330Z,21.77
2018-12-13T13:53:41.934Z,25.88
2018-12-13T13:56:09.500Z,20.25
2018-12-13T13:58:37.089Z,22.77
2018-12-13T14:01:04.683Z,23.38
2018-12-13T14:03:32.251Z,21.93
2018-12-13T14:05:59.889Z,21.85
2018-12-13T14:08:27.519Z,21.05
2018-12-13T14:10:55.106Z,21.93
2018-12-13T14:13:22.667Z,20.75
2018-12-13T14:15:50.271Z,22.20
2018-12-13T14:18:17.831Z,19.77
2018-12-13T14:20:45.422Z,22.02
2018-12-13T14:23:13.099Z,22.43
2018-12-13T14:25:40.837Z,19.92
2018-12-13T14:28:08.407Z,21.10
2018-12-13T14:30:35.990Z,20.30
2018-12-13T14:33:03.571Z,21.97
2018-12-13T14:35:31.154Z,22.62
2018-12-13T14:37:58.724Z,22.00
2018-12-13T14:40:26.315Z,20.70
2018-12-13T14:42:53.907Z,21.33
2018-12-13T14:45:21.499Z,23.18
2018-12-13T14:47:49.091Z,22.65
2018-12-13T14:50:17.334Z,23.15
2018-12-13T14:52:45.016Z,21.97
2018-12-13T14:55:12.704Z,21.52
2018-12-13T14:57:40.307Z,22.62
2018-12-13T15:00:10.726Z,22.45
2018-12-13T15:02:38.350Z,23.55
2018-12-13T15:05:06.229Z,23.97
2018-12-13T15:07:33.823Z,22.77
2018-12-13T15:10:01.387Z,23.35
2018-12-13T15:12:28.983Z,24.43
2018-12-13T15:14:56.562Z,24.12
2018-12-13T15:17:24.154Z,24.35
2018-12-13T15:19:51.722Z,25.85
2018-12-13T15:22:19.315Z,24.20
2018-12-13T15:24:46.885Z,25.65
2018-12-13T15:27:14.474Z,26.00
2018-12-13T15:29:42.066Z,24.50
2018-12-13T15:32:09.637Z,25.10
2018-12-13T15:34:37.237Z,24.95
2018-12-13T15:37:04.796Z,25.62
2018-12-13T15:39:32.387Z,27.67
2018-12-13T15:41:59.957Z,26.47
2018-12-13T15:44:27.556Z,28.27
2018-12-13T15:46:55.132Z,27.02
2018-12-13T15:49:23.339Z,25.45
2018-12-13T15:51:50.904Z,26.33
2018-12-13T15:54:18.590Z,26.23
2018-12-13T15:56:46.163Z,25.57
2018-12-13T15:59:13.750Z,26.07
2018-12-13T16:01:41.447Z,26.75
2018-12-13T16:04:09.134Z,25.23
2018-12-13T16:06:36.804Z,23.32
2018-12-13T16:09:06.235Z,25.30
2018-12-13T16:11:33.801Z,27.15
2018-12-13T16:14:01.367Z,24.75
2018-12-13T16:16:29.080Z,23.65
2018-12-13T16:18:56.741Z,26.68
2018-12-13T16:21:24.335Z,26.47
2018-12-13T16:23:51.907Z,25.85
2018-12-13T16:26:20.749Z,24.63
2018-12-13T16:28:48.319Z,23.47
2018-12-13T16:31:15.912Z,24.63
2018-12-13T16:33:43.479Z,22.37
2018-12-13T16:36:11.074Z,23.67
2018-12-13T16:38:38.635Z,24.57
2018-12-13T16:41:06.258Z,25.03
2018-12-13T16:43:33.831Z,26.62
2018-12-13T16:46:01.424Z,25.50
2018-12-13T16:48:29.087Z,27.52
2018-12-13T16:50:56.691Z,26.97
2018-12-13T16:53:24.313Z,26.48
2018-12-13T16:55:51.875Z,25.88
2018-12-13T16:58:19.506Z,23.22
2018-12-13T17:00:47.085Z,24.82
2018-12-13T17:03:27.267Z,24.70
2018-12-13T17:05:54.845Z,25.52
2018-12-13T17:08:22.442Z,24.10
2018-12-13T17:10:50.002Z,24.67
2018-12-13T17:13:17.920Z,27.07
2018-12-13T17:15:46.879Z,23.22
2018-12-13T17:18:25.239Z,23.73
2018-12-13T17:20:52.851Z,26.93
2018-12-13T17:23:20.460Z,24.47
2018-12-13T17:25:48.029Z,25.63
2018-12-13T17:28:15.635Z,26.95
2018-12-13T17:30:43.207Z,27.85
2018-12-13T17:33:10.803Z,26.82
2018-12-13T17:35:38.366Z,25.80
2018-12-13T17:38:06.023Z,29.72
2018-12-13T17:40:33.639Z,30.60
2018-12-13T17:43:01.201Z,27.43
2018-12-13T17:45:30.814Z,27.10
2018-12-13T17:47:58.375Z,28.00
2018-12-13T17:50:25.992Z,27.13
2018-12-13T17:52:53.554Z,25.13
2018-12-13T17:55:21.146Z,25.82
2018-12-13T17:57:48.718Z,27.35
2018-12-13T18:00:16.311Z,27.15
2018-12-13T18:02:44.589Z,26.90
2018-12-13T18:05:12.178Z,29.27
2018-12-13T18:07:39.734Z,25.50
2018-12-13T18:10:09.552Z,30.65
2018-12-13T18:12:37.326Z,26.12
2018-12-13T18:15:06.164Z,27.80
2018-12-13T18:17:33.980Z,25.02
2018-12-13T18:20:01.748Z,24.45
2018-12-13T18:22:29.319Z,26.35
2018-12-13T18:24:56.961Z,26.90
2018-12-13T18:27:24.557Z,26.52
2018-12-13T18:29:52.124Z,26.57
2018-12-13T18:32:19.714Z,24.70
2018-12-13T18:34:47.402Z,27.80
2018-12-13T18:37:14.994Z,25.68
2018-12-13T18:39:42.558Z,26.23
2018-12-13T18:42:10.151Z,27.90
2018-12-13T18:44:37.761Z,28.05
2018-12-13T18:47:06.357Z,25.55
2018-12-13T18:49:33.931Z,27.02
2018-12-13T18:52:01.539Z,25.50
2018-12-13T18:54:29.115Z,26.12
2018-12-13T18:56:56.715Z,28.30
2018-12-13T18:59:24.291Z,26.70
2018-12-13T19:01:51.883Z,26.73
2018-12-13T19:04:19.466Z,28.02
2018-12-13T19:06:47.059Z,26.85
2018-12-13T19:09:14.626Z,26.23
2018-12-13T19:11:42.218Z,26.30
2018-12-13T19:14:09.818Z,29.42
2018-12-13T19:16:37.560Z,28.32
2018-12-13T19:19:05.138Z,27.73
2018-12-13T19:21:32.739Z,30.32
2018-12-13T19:24:00.331Z,29.52
2018-12-13T19:26:27.983Z,27.00
2018-12-13T19:28:55.590Z,29.27
2018-12-13T19:31:23.160Z,26.27
2018-12-13T19:33:50.749Z,27.37
2018-12-13T19:36:18.327Z,28.90
2018-12-13T19:38:45.926Z,27.58
2018-12-13T19:41:13.489Z,25.70
2018-12-13T19:43:41.091Z,26.73
2018-12-13T19:46:08.666Z,26.17
2018-12-13T19:48:36.295Z,26.97
2018-12-13T19:51:04.006Z,31.17
2018-12-13T19:53:31.603Z,29.57
2018-12-13T19:55:59.206Z,29.18
2018-12-13T19:58:26.777Z,30.72
2018-12-13T20:00:54.362Z,30.82
2018-12-13T20:03:21.982Z,31.43
2018-12-13T20:05:49.627Z,30.12
2018-12-13T20:08:17.410Z,30.62
2018-12-13T20:10:45.023Z,29.00
2018-12-13T20:13:12.603Z,30.62
2018-12-13T20:15:40.267Z,31.30
2018-12-13T20:18:07.855Z,32.55
2018-12-13T20:20:35.534Z,30.52
2018-12-13T20:23:03.253Z,30.75
2018-12-13T20:25:30.838Z,32.67
2018-12-13T20:27:58.541Z,30.60
2018-12-13T20:30:26.846Z,30.62
2018-12-13T20:32:54.536Z,37.78
2018-12-13T20:35:22.642Z,34.00
2018-12-13T20:37:50.212Z,31.23
2018-12-13T20:40:17.803Z,30.37
2018-12-13T20:42:45.396Z,30.77
2018-12-13T20:45:12.975Z,31.07
2018-12-13T20:47:40.566Z,27.70
2018-12-13T20:50:08.169Z,29.57
2018-12-13T20:52:36.736Z,30.60
2018-12-13T20:55:04.719Z,30.05
2018-12-13T20:57:32.322Z,30.10
2018-12-13T20:59:59.903Z,29.85
2018-12-13T21:02:27.495Z,32.03
2018-12-13T21:04:55.126Z,30.75
2018-12-13T21:07:28.639Z,29.25
2018-12-13T21:09:56.422Z,27.73
2018-12-13T21:12:24.027Z,28.38
2018-12-13T21:14:51.722Z,27.37
2018-12-13T21:17:19.318Z,27.70
2018-12-13T21:19:46.885Z,27.70
2018-12-13T21:22:14.475Z,31.82
2018-12-13T21:24:42.084Z,28.83
2018-12-13T21:27:09.646Z,28.57
2018-12-13T21:29:37.300Z,29.72
2018-12-13T21:32:04.858Z,28.03
2018-12-13T21:34:32.479Z,28.47
2018-12-13T21:37:00.168Z,29.00
2018-12-13T21:39:27.762Z,27.32
2018-12-13T21:41:55.327Z,28.30
2018-12-13T21:44:22.930Z,28.45
2018-12-13T21:46:50.502Z,26.40
2018-12-13T21:49:18.099Z,28.15
2018-12-13T21:51:45.680Z,26.23
2018-12-13T21:54:13.277Z,28.23
2018-12-13T21:56:42.059Z,26.87
2018-12-13T21:59:09.651Z,28.53
2018-12-13T22:01:37.223Z,25.90
2018-12-13T22:04:04.815Z,27.30
2018-12-13T22:06:32.384Z,27.73
2018-12-13T22:08:59.981Z,28.57
2018-12-13T22:11:27.587Z,27.10
2018-12-13T22:13:55.156Z,25.37
2018-12-13T22:16:22.746Z,25.55
2018-12-13T22:18:50.524Z,24.43
2018-12-13T22:21:18.186Z,25.32
2018-12-13T22:23:45.750Z,25.62
2018-12-13T22:26:13.353Z,26.13
2018-12-13T22:28:40.930Z,28.30
2018-12-13T22:31:08.523Z,25.60
2018-12-13T22:33:36.147Z,28.98
2018-12-13T22:36:03.750Z,28.45
2018-12-13T22:38:31.306Z,29.50
2018-12-13T22:40:58.890Z,30.90
2018-12-13T22:43:26.454Z,28.10
2018-12-13T22:45:54.055Z,31.03
2018-12-13T22:48:21.626Z,29.48
2018-12-13T22:50:49.304Z,30.68
2018-12-13T22:53:16.900Z,33.13
2018-12-13T22:55:44.472Z,30.82
2018-12-13T22:58:12.073Z,29.10
2018-12-13T23:00:40.174Z,31.87
2018-12-13T23:03:07.767Z,30.40
2018-12-13T23:05:35.354Z,32.73
2018-12-13T23:08:02.955Z,31.57
2018-12-13T23:10:30.838Z,32.13
2018-12-13T23:12:58.430Z,30.00
2018-12-13T23:15:25.995Z,30.17
2018-12-13T23:17:53.600Z,29.65
2018-12-13T23:20:21.291Z,31.65
2018-12-13T23:22:49.812Z,30.27
2018-12-13T23:25:18.022Z,30.30
2018-12-13T23:27:45.618Z,32.60
2018-12-13T23:30:13.318Z,29.60
2018-12-13T23:32:40.915Z,30.97
2018-12-13T23:35:08.504Z,30.08
2018-12-13T23:37:36.079Z,32.10
2018-12-13T23:40:03.893Z,30.57
2018-12-13T23:42:31.459Z,29.95
2018-12-13T23:44:59.062Z,32.58
2018-12-13T23:47:26.632Z,32.15
2018-12-13T23:49:55.212Z,34.23
2018-12-13T23:52:22.782Z,30.62
2018-12-13T23:54:50.392Z,28.85
2018-12-13T23:57:17.974Z,30.92
2018-12-13T23:59:45.566Z,30.80
